sensor_id;sensor_type;location;lat;lon;timestamp;pressure;altitude;pressure_sealevel;temperature;humidity
82305;BME280;71914;47.382;8.168;2023-11-21T00:02:15;96412.06;;;7.63;69.56
82305;BME280;71914;47.382;8.168;2023-11-21T00:04:41;96409.56;;;7.61;69.64
82305;BME280;71914;47.382;8.168;2023-11-21T00:07:06;96406.44;;;7.68;70.00
82305;BME280;71914;47.382;8.168;2023-11-21T00:09:32;96414.84;;;7.71;72.32
82305;BME280;71914;47.382;8.168;2023-11-21T00:11:57;96408.09;;;7.69;70.22
82305;BME280;71914;47.382;8.168;2023-11-21T00:14:24;96404.22;;;7.63;70.14
82305;BME280;71914;47.382;8.168;2023-11-21T00:16:51;96411.66;;;7.68;70.42
82305;BME280;71914;47.382;8.168;2023-11-21T00:19:17;96409.19;;;7.66;70.96
82305;BME280;71914;47.382;8.168;2023-11-21T00:21:42;96411.41;;;7.71;69.80
82305;BME280;71914;47.382;8.168;2023-11-21T00:24:09;96410.94;;;7.65;71.34
82305;BME280;71914;47.382;8.168;2023-11-21T00:26:34;96411.66;;;7.68;76.12
82305;BME280;71914;47.382;8.168;2023-11-21T00:29:02;96407.53;;;7.65;75.28
82305;BME280;71914;47.382;8.168;2023-11-21T00:31:27;96404.78;;;7.67;70.85
82305;BME280;71914;47.382;8.168;2023-11-21T00:33:54;96397.28;;;7.73;73.70
82305;BME280;71914;47.382;8.168;2023-11-21T00:36:20;96396.97;;;7.67;73.30
82305;BME280;71914;47.382;8.168;2023-11-21T00:38:45;96391.28;;;7.61;74.71
82305;BME280;71914;47.382;8.168;2023-11-21T00:41:10;96391.56;;;7.58;73.67
82305;BME280;71914;47.382;8.168;2023-11-21T00:43:36;96398.19;;;7.62;76.58
82305;BME280;71914;47.382;8.168;2023-11-21T00:46:04;96394.47;;;7.65;76.37
82305;BME280;71914;47.382;8.168;2023-11-21T00:48:29;96390.22;;;7.64;73.96
82305;BME280;71914;47.382;8.168;2023-11-21T00:50:56;96385.28;;;7.61;71.92
82305;BME280;71914;47.382;8.168;2023-11-21T00:53:21;96385.41;;;7.59;76.24
82305;BME280;71914;47.382;8.168;2023-11-21T00:55:47;96390.84;;;7.56;77.38
82305;BME280;71914;47.382;8.168;2023-11-21T00:58:13;96390.84;;;7.56;77.54
82305;BME280;71914;47.382;8.168;2023-11-21T01:00:38;96390.03;;;7.56;75.53
82305;BME280;71914;47.382;8.168;2023-11-21T01:03:05;96379.88;;;7.53;78.82
82305;BME280;71914;47.382;8.168;2023-11-21T01:05:30;96385.75;;;7.55;79.46
82305;BME280;71914;47.382;8.168;2023-11-21T01:07:57;96391.13;;;7.53;79.01
82305;BME280;71914;47.382;8.168;2023-11-21T01:10:22;96387.69;;;7.53;79.97
82305;BME280;71914;47.382;8.168;2023-11-21T01:12:48;96390.28;;;7.53;78.26
82305;BME280;71914;47.382;8.168;2023-11-21T01:15:14;96386.03;;;7.52;77.28
82305;BME280;71914;47.382;8.168;2023-11-21T01:17:39;96373.44;;;7.57;78.04
82305;BME280;71914;47.382;8.168;2023-11-21T01:20:06;96379.97;;;7.51;76.23
82305;BME280;71914;47.382;8.168;2023-11-21T01:22:36;96376.56;;;7.51;78.47
82305;BME280;71914;47.382;8.168;2023-11-21T01:25:04;96381.25;;;7.57;79.15
82305;BME280;71914;47.382;8.168;2023-11-21T01:27:32;96374.66;;;7.53;79.69
82305;BME280;71914;47.382;8.168;2023-11-21T01:29:58;96385.44;;;7.48;77.54
82305;BME280;71914;47.382;8.168;2023-11-21T01:32:23;96382.25;;;7.44;79.44
82305;BME280;71914;47.382;8.168;2023-11-21T01:34:50;96386.34;;;7.37;76.64
82305;BME280;71914;47.382;8.168;2023-11-21T01:37:16;96385.56;;;7.46;76.19
82305;BME280;71914;47.382;8.168;2023-11-21T01:39:42;96385.84;;;7.43;77.24
82305;BME280;71914;47.382;8.168;2023-11-21T01:42:10;96386.78;;;7.42;76.42
82305;BME280;71914;47.382;8.168;2023-11-21T01:44:38;96390.34;;;7.41;75.95
82305;BME280;71914;47.382;8.168;2023-11-21T01:47:05;96394.16;;;7.37;73.76
82305;BME280;71914;47.382;8.168;2023-11-21T01:49:31;96387.03;;;7.39;75.70
82305;BME280;71914;47.382;8.168;2023-11-21T01:51:59;96390.63;;;7.27;75.07
82305;BME280;71914;47.382;8.168;2023-11-21T01:54:25;96400.09;;;7.07;78.10
82305;BME280;71914;47.382;8.168;2023-11-21T01:56:50;96393.09;;;6.96;77.67
82305;BME280;71914;47.382;8.168;2023-11-21T01:59:20;96399.06;;;6.87;80.36
82305;BME280;71914;47.382;8.168;2023-11-21T02:01:48;96407.13;;;6.84;81.38
82305;BME280;71914;47.382;8.168;2023-11-21T02:04:15;96395.16;;;6.92;81.55
82305;BME280;71914;47.382;8.168;2023-11-21T02:06:41;96398.69;;;6.91;81.49
82305;BME280;71914;47.382;8.168;2023-11-21T02:09:06;96391.38;;;6.85;79.04
82305;BME280;71914;47.382;8.168;2023-11-21T02:11:32;96396.81;;;6.82;78.72
82305;BME280;71914;47.382;8.168;2023-11-21T02:14:00;96398.50;;;6.83;77.86
82305;BME280;71914;47.382;8.168;2023-11-21T02:16:27;96402.28;;;6.79;78.63
82305;BME280;71914;47.382;8.168;2023-11-21T02:18:56;96392.81;;;6.78;79.68
82305;BME280;71914;47.382;8.168;2023-11-21T02:21:23;96387.00;;;6.74;80.33
82305;BME280;71914;47.382;8.168;2023-11-21T02:23:51;96376.84;;;6.71;81.75
82305;BME280;71914;47.382;8.168;2023-11-21T02:26:17;96371.03;;;6.79;84.64
82305;BME280;71914;47.382;8.168;2023-11-21T02:28:42;96374.00;;;6.74;83.22
82305;BME280;71914;47.382;8.168;2023-11-21T02:31:08;96368.06;;;6.72;83.19
82305;BME280;71914;47.382;8.168;2023-11-21T02:33:33;96369.94;;;6.81;82.54
82305;BME280;71914;47.382;8.168;2023-11-21T02:35:59;96362.84;;;6.84;83.85
82305;BME280;71914;47.382;8.168;2023-11-21T02:38:25;96358.03;;;6.79;82.44
82305;BME280;71914;47.382;8.168;2023-11-21T02:40:51;96367.84;;;6.75;82.78
82305;BME280;71914;47.382;8.168;2023-11-21T02:43:17;96373.06;;;6.75;81.82
82305;BME280;71914;47.382;8.168;2023-11-21T02:45:43;96371.66;;;6.71;82.23
82305;BME280;71914;47.382;8.168;2023-11-21T02:48:08;96364.31;;;6.65;84.22
82305;BME280;71914;47.382;8.168;2023-11-21T02:50:34;96362.69;;;6.53;83.54
82305;BME280;71914;47.382;8.168;2023-11-21T02:53:00;96352.50;;;6.50;85.83
82305;BME280;71914;47.382;8.168;2023-11-21T02:55:26;96359.59;;;6.59;87.12
82305;BME280;71914;47.382;8.168;2023-11-21T02:57:53;96352.97;;;6.66;87.29
82305;BME280;71914;47.382;8.168;2023-11-21T03:00:19;96359.56;;;6.70;87.13
82305;BME280;71914;47.382;8.168;2023-11-21T03:02:45;96348.44;;;6.68;86.57
82305;BME280;71914;47.382;8.168;2023-11-21T03:05:10;96352.56;;;6.71;86.95
82305;BME280;71914;47.382;8.168;2023-11-21T03:07:36;96358.16;;;6.66;85.98
82305;BME280;71914;47.382;8.168;2023-11-21T03:10:02;96353.50;;;6.70;86.80
82305;BME280;71914;47.382;8.168;2023-11-21T03:12:29;96353.50;;;6.70;87.09
82305;BME280;71914;47.382;8.168;2023-11-21T03:14:56;96353.16;;;6.74;87.09
82305;BME280;71914;47.382;8.168;2023-11-21T03:17:21;96346.56;;;6.70;86.08
82305;BME280;71914;47.382;8.168;2023-11-21T03:19:47;96355.44;;;6.68;86.67
82305;BME280;71914;47.382;8.168;2023-11-21T03:22:13;96355.44;;;6.68;86.63
82305;BME280;71914;47.382;8.168;2023-11-21T03:24:38;96349.88;;;6.61;85.13
82305;BME280;71914;47.382;8.168;2023-11-21T03:27:04;96358.91;;;6.57;85.89
82305;BME280;71914;47.382;8.168;2023-11-21T03:29:30;96366.13;;;6.42;85.55
82305;BME280;71914;47.382;8.168;2023-11-21T03:31:56;96365.56;;;6.38;85.39
82305;BME280;71914;47.382;8.168;2023-11-21T03:34:24;96364.59;;;6.17;85.78
82305;BME280;71914;47.382;8.168;2023-11-21T03:36:50;96365.41;;;5.94;86.97
82305;BME280;71914;47.382;8.168;2023-11-21T03:39:15;96363.31;;;6.00;88.97
82305;BME280;71914;47.382;8.168;2023-11-21T03:41:41;96351.00;;;6.13;89.89
82305;BME280;71914;47.382;8.168;2023-11-21T03:44:06;96350.78;;;6.16;88.45
82305;BME280;71914;47.382;8.168;2023-11-21T03:46:32;96352.19;;;6.20;88.30
82305;BME280;71914;47.382;8.168;2023-11-21T03:48:59;96359.75;;;6.23;88.64
82305;BME280;71914;47.382;8.168;2023-11-21T03:51:24;96357.03;;;6.25;88.41
82305;BME280;71914;47.382;8.168;2023-11-21T03:53:50;96366.63;;;6.24;87.68
82305;BME280;71914;47.382;8.168;2023-11-21T03:56:15;96369.09;;;6.26;87.97
82305;BME280;71914;47.382;8.168;2023-11-21T03:58:41;96366.50;;;6.26;87.07
82305;BME280;71914;47.382;8.168;2023-11-21T04:01:07;96363.88;;;6.26;85.07
82305;BME280;71914;47.382;8.168;2023-11-21T04:03:32;96375.13;;;6.26;85.42
82305;BME280;71914;47.382;8.168;2023-11-21T04:05:59;96376.22;;;6.24;84.66
82305;BME280;71914;47.382;8.168;2023-11-21T04:08:26;96382.56;;;6.20;85.75
82305;BME280;71914;47.382;8.168;2023-11-21T04:10:51;96375.47;;;6.22;86.56
82305;BME280;71914;47.382;8.168;2023-11-21T04:13:18;96378.81;;;6.24;86.70
82305;BME280;71914;47.382;8.168;2023-11-21T04:15:44;96386.50;;;6.25;85.91
82305;BME280;71914;47.382;8.168;2023-11-21T04:18:09;96391.22;;;6.09;85.73
82305;BME280;71914;47.382;8.168;2023-11-21T04:20:35;96385.38;;;5.94;87.17
82305;BME280;71914;47.382;8.168;2023-11-21T04:23:02;96382.91;;;5.92;88.70
82305;BME280;71914;47.382;8.168;2023-11-21T04:25:28;96389.66;;;5.95;88.78
82305;BME280;71914;47.382;8.168;2023-11-21T04:27:54;96382.31;;;6.00;88.39
82305;BME280;71914;47.382;8.168;2023-11-21T04:30:19;96390.72;;;6.04;88.09
82305;BME280;71914;47.382;8.168;2023-11-21T04:32:46;96389.44;;;6.09;88.52
82305;BME280;71914;47.382;8.168;2023-11-21T04:35:11;96388.25;;;6.02;86.23
82305;BME280;71914;47.382;8.168;2023-11-21T04:37:37;96384.09;;;6.00;88.09
82305;BME280;71914;47.382;8.168;2023-11-21T04:40:05;96381.94;;;5.93;87.27
82305;BME280;71914;47.382;8.168;2023-11-21T04:42:33;96388.50;;;5.99;88.86
82305;BME280;71914;47.382;8.168;2023-11-21T04:44:59;96378.91;;;6.00;88.05
82305;BME280;71914;47.382;8.168;2023-11-21T04:47:24;96381.38;;;6.01;88.10
82305;BME280;71914;47.382;8.168;2023-11-21T04:49:50;96390.28;;;6.10;89.01
82305;BME280;71914;47.382;8.168;2023-11-21T04:52:15;96385.19;;;6.08;86.74
82305;BME280;71914;47.382;8.168;2023-11-21T04:54:41;96384.00;;;6.01;86.72
82305;BME280;71914;47.382;8.168;2023-11-21T04:57:09;96380.56;;;6.01;88.73
82305;BME280;71914;47.382;8.168;2023-11-21T04:59:34;96394.16;;;6.15;87.97
82305;BME280;71914;47.382;8.168;2023-11-21T05:02:00;96381.16;;;6.04;86.82
82305;BME280;71914;47.382;8.168;2023-11-21T05:04:26;96384.06;;;5.88;87.69
82305;BME280;71914;47.382;8.168;2023-11-21T05:06:52;96393.28;;;5.81;87.93
82305;BME280;71914;47.382;8.168;2023-11-21T05:09:18;96393.59;;;5.76;87.85
82305;BME280;71914;47.382;8.168;2023-11-21T05:11:43;96390.53;;;5.71;87.32
82305;BME280;71914;47.382;8.168;2023-11-21T05:14:10;96395.72;;;5.71;87.25
82305;BME280;71914;47.382;8.168;2023-11-21T05:16:35;96394.31;;;5.67;88.27
82305;BME280;71914;47.382;8.168;2023-11-21T05:19:01;96396.91;;;5.67;89.60
82305;BME280;71914;47.382;8.168;2023-11-21T05:21:27;96403.81;;;5.79;90.46
82305;BME280;71914;47.382;8.168;2023-11-21T05:23:54;96399.84;;;5.98;90.95
82305;BME280;71914;47.382;8.168;2023-11-21T05:26:20;96406.56;;;6.12;91.08
82305;BME280;71914;47.382;8.168;2023-11-21T05:28:45;96397.72;;;6.26;90.83
82305;BME280;71914;47.382;8.168;2023-11-21T05:31:12;96405.66;;;6.36;92.42
82305;BME280;71914;47.382;8.168;2023-11-21T05:33:38;96397.34;;;6.42;91.74
82305;BME280;71914;47.382;8.168;2023-11-21T05:36:04;96395.69;;;6.41;87.59
82305;BME280;71914;47.382;8.168;2023-11-21T05:38:30;96401.59;;;6.31;88.33
82305;BME280;71914;47.382;8.168;2023-11-21T05:40:55;96396.78;;;6.27;89.41
82305;BME280;71914;47.382;8.168;2023-11-21T05:43:21;96397.84;;;6.24;88.83
82305;BME280;71914;47.382;8.168;2023-11-21T05:45:46;96403.38;;;6.20;86.96
82305;BME280;71914;47.382;8.168;2023-11-21T05:48:13;96399.56;;;5.90;88.34
82305;BME280;71914;47.382;8.168;2023-11-21T05:50:39;96396.22;;;5.76;89.25
82305;BME280;71914;47.382;8.168;2023-11-21T05:53:04;96405.31;;;5.71;90.52
82305;BME280;71914;47.382;8.168;2023-11-21T05:55:30;96408.06;;;5.92;92.38
82305;BME280;71914;47.382;8.168;2023-11-21T05:57:56;96412.47;;;6.03;92.50
82305;BME280;71914;47.382;8.168;2023-11-21T06:00:22;96416.28;;;6.10;90.98
82305;BME280;71914;47.382;8.168;2023-11-21T06:02:47;96414.03;;;6.17;90.93
82305;BME280;71914;47.382;8.168;2023-11-21T06:05:17;96423.50;;;6.29;90.57
82305;BME280;71914;47.382;8.168;2023-11-21T06:07:43;96427.41;;;6.35;90.39
82305;BME280;71914;47.382;8.168;2023-11-21T06:10:10;96433.69;;;6.32;90.12
82305;BME280;71914;47.382;8.168;2023-11-21T06:12:38;96433.69;;;6.32;90.64
82305;BME280;71914;47.382;8.168;2023-11-21T06:15:06;96437.81;;;6.35;87.70
82305;BME280;71914;47.382;8.168;2023-11-21T06:17:34;96429.63;;;6.05;88.94
82305;BME280;71914;47.382;8.168;2023-11-21T06:20:01;96431.91;;;5.86;89.47
82305;BME280;71914;47.382;8.168;2023-11-21T06:22:30;96438.41;;;5.80;89.92
82305;BME280;71914;47.382;8.168;2023-11-21T06:24:56;96437.25;;;5.73;90.27
82305;BME280;71914;47.382;8.168;2023-11-21T06:27:21;96433.28;;;5.67;90.93
82305;BME280;71914;47.382;8.168;2023-11-21T06:29:47;96440.53;;;5.63;91.17
82305;BME280;71914;47.382;8.168;2023-11-21T06:32:13;96438.41;;;5.80;93.11
82305;BME280;71914;47.382;8.168;2023-11-21T06:34:38;96444.47;;;5.92;94.19
82305;BME280;71914;47.382;8.168;2023-11-21T06:37:04;96442.06;;;6.02;91.25
82305;BME280;71914;47.382;8.168;2023-11-21T06:39:31;96442.19;;;5.76;90.87
82305;BME280;71914;47.382;8.168;2023-11-21T06:41:56;96446.09;;;5.81;91.56
82305;BME280;71914;47.382;8.168;2023-11-21T06:44:22;96445.13;;;5.71;91.55
82305;BME280;71914;47.382;8.168;2023-11-21T06:46:48;96451.78;;;5.75;92.90
82305;BME280;71914;47.382;8.168;2023-11-21T06:49:14;96445.41;;;5.91;93.00
82305;BME280;71914;47.382;8.168;2023-11-21T06:51:39;96455.75;;;6.04;93.29
82305;BME280;71914;47.382;8.168;2023-11-21T06:54:05;96460.50;;;6.10;93.64
82305;BME280;71914;47.382;8.168;2023-11-21T06:56:32;96456.03;;;6.23;93.80
82305;BME280;71914;47.382;8.168;2023-11-21T06:58:58;96462.53;;;6.18;90.87
82305;BME280;71914;47.382;8.168;2023-11-21T07:01:23;96460.25;;;6.13;89.95
82305;BME280;71914;47.382;8.168;2023-11-21T07:03:50;96462.06;;;5.88;90.67
82305;BME280;71914;47.382;8.168;2023-11-21T07:06:15;96455.53;;;5.71;91.79
82305;BME280;71914;47.382;8.168;2023-11-21T07:08:42;96457.53;;;5.68;91.58
82305;BME280;71914;47.382;8.168;2023-11-21T07:11:08;96461.19;;;5.65;92.21
82305;BME280;71914;47.382;8.168;2023-11-21T07:13:34;96454.44;;;5.62;92.83
82305;BME280;71914;47.382;8.168;2023-11-21T07:16:00;96456.75;;;5.78;93.79
82305;BME280;71914;47.382;8.168;2023-11-21T07:18:26;96462.19;;;5.87;94.53
82305;BME280;71914;47.382;8.168;2023-11-21T07:20:51;96461.19;;;6.01;94.00
82305;BME280;71914;47.382;8.168;2023-11-21T07:23:17;96461.09;;;6.02;91.42
82305;BME280;71914;47.382;8.168;2023-11-21T07:25:42;96457.16;;;5.96;90.55
82305;BME280;71914;47.382;8.168;2023-11-21T07:28:08;96458.31;;;5.92;90.62
82305;BME280;71914;47.382;8.168;2023-11-21T07:30:35;96454.88;;;5.92;90.88
82305;BME280;71914;47.382;8.168;2023-11-21T07:33:00;96455.16;;;6.00;92.25
82305;BME280;71914;47.382;8.168;2023-11-21T07:35:26;96462.97;;;6.00;91.24
82305;BME280;71914;47.382;8.168;2023-11-21T07:37:52;96464.41;;;6.04;91.87
82305;BME280;71914;47.382;8.168;2023-11-21T07:40:17;96465.22;;;6.05;90.90
82305;BME280;71914;47.382;8.168;2023-11-21T07:42:43;96466.16;;;6.04;90.66
82305;BME280;71914;47.382;8.168;2023-11-21T07:45:09;96467.22;;;6.01;90.74
82305;BME280;71914;47.382;8.168;2023-11-21T07:47:35;96477.63;;;6.01;90.50
82305;BME280;71914;47.382;8.168;2023-11-21T07:50:02;96482.25;;;6.09;90.47
82305;BME280;71914;47.382;8.168;2023-11-21T07:52:28;96478.72;;;6.10;91.06
82305;BME280;71914;47.382;8.168;2023-11-21T07:54:53;96478.84;;;6.20;90.99
82305;BME280;71914;47.382;8.168;2023-11-21T07:57:19;96480.16;;;6.25;91.14
82305;BME280;71914;47.382;8.168;2023-11-21T07:59:44;96478.38;;;6.26;90.63
82305;BME280;71914;47.382;8.168;2023-11-21T08:02:10;96472.00;;;6.30;91.80
82305;BME280;71914;47.382;8.168;2023-11-21T08:04:37;96486.22;;;6.37;91.99
82305;BME280;71914;47.382;8.168;2023-11-21T08:07:03;96482.91;;;6.46;92.28
82305;BME280;71914;47.382;8.168;2023-11-21T08:09:29;96483.72;;;6.58;92.23
82305;BME280;71914;47.382;8.168;2023-11-21T08:11:54;96486.56;;;6.67;90.00
82305;BME280;71914;47.382;8.168;2023-11-21T08:14:20;96483.03;;;6.68;88.44
82305;BME280;71914;47.382;8.168;2023-11-21T08:16:45;96490.34;;;6.51;87.98
82305;BME280;71914;47.382;8.168;2023-11-21T08:19:11;96489.28;;;6.42;89.64
82305;BME280;71914;47.382;8.168;2023-11-21T08:21:38;96489.75;;;6.36;90.02
82305;BME280;71914;47.382;8.168;2023-11-21T08:24:05;96491.53;;;6.36;90.46
82305;BME280;71914;47.382;8.168;2023-11-21T08:26:30;96492.34;;;6.36;90.03
82305;BME280;71914;47.382;8.168;2023-11-21T08:28:56;96488.22;;;6.45;91.33
82305;BME280;71914;47.382;8.168;2023-11-21T08:31:25;96493.31;;;6.46;91.08
82305;BME280;71914;47.382;8.168;2023-11-21T08:33:51;96500.75;;;6.51;91.35
82305;BME280;71914;47.382;8.168;2023-11-21T08:36:17;96498.88;;;6.53;91.64
82305;BME280;71914;47.382;8.168;2023-11-21T08:38:44;96505.84;;;6.64;92.16
82305;BME280;71914;47.382;8.168;2023-11-21T08:41:10;96503.38;;;6.62;90.80
82305;BME280;71914;47.382;8.168;2023-11-21T08:43:36;96510.72;;;6.69;91.40
82305;BME280;71914;47.382;8.168;2023-11-21T08:46:05;96506.56;;;6.66;89.19
82305;BME280;71914;47.382;8.168;2023-11-21T08:48:30;96510.47;;;6.60;88.88
82305;BME280;71914;47.382;8.168;2023-11-21T08:50:56;96509.88;;;6.57;90.43
82305;BME280;71914;47.382;8.168;2023-11-21T08:53:22;96513.44;;;6.56;90.97
82305;BME280;71914;47.382;8.168;2023-11-21T08:55:49;96512.97;;;6.62;91.46
82305;BME280;71914;47.382;8.168;2023-11-21T08:58:15;96514.38;;;6.77;89.87
82305;BME280;71914;47.382;8.168;2023-11-21T09:00:41;96509.50;;;6.84;89.55
82305;BME280;71914;47.382;8.168;2023-11-21T09:03:06;96509.28;;;6.76;88.00
82305;BME280;71914;47.382;8.168;2023-11-21T09:05:37;96513.91;;;6.61;88.41
82305;BME280;71914;47.382;8.168;2023-11-21T09:08:04;96518.97;;;6.51;87.93
82305;BME280;71914;47.382;8.168;2023-11-21T09:10:29;96523.69;;;6.46;88.55
82305;BME280;71914;47.382;8.168;2023-11-21T09:12:56;96521.72;;;6.38;88.30
82305;BME280;71914;47.382;8.168;2023-11-21T09:15:22;96515.91;;;6.35;89.42
82305;BME280;71914;47.382;8.168;2023-11-21T09:17:48;96509.28;;;6.30;88.85
82305;BME280;71914;47.382;8.168;2023-11-21T09:20:13;96515.41;;;6.29;88.88
82305;BME280;71914;47.382;8.168;2023-11-21T09:22:40;96518.13;;;6.28;88.66
82305;BME280;71914;47.382;8.168;2023-11-21T09:25:06;96519.91;;;6.27;89.76
82305;BME280;71914;47.382;8.168;2023-11-21T09:27:33;96527.59;;;6.40;91.60
82305;BME280;71914;47.382;8.168;2023-11-21T09:30:00;96519.69;;;6.53;90.82
82305;BME280;71914;47.382;8.168;2023-11-21T09:32:26;96527.03;;;6.71;92.70
82305;BME280;71914;47.382;8.168;2023-11-21T09:34:51;96522.31;;;6.76;90.94
82305;BME280;71914;47.382;8.168;2023-11-21T09:37:18;96517.81;;;6.78;87.38
82305;BME280;71914;47.382;8.168;2023-11-21T09:39:44;96522.53;;;6.61;89.09
82305;BME280;71914;47.382;8.168;2023-11-21T09:42:12;96520.53;;;6.42;88.86
82305;BME280;71914;47.382;8.168;2023-11-21T09:44:45;96537.31;;;6.50;91.83
82305;BME280;71914;47.382;8.168;2023-11-21T09:47:14;96542.66;;;6.71;92.40
82305;BME280;71914;47.382;8.168;2023-11-21T09:49:43;96544.69;;;6.90;91.88
82305;BME280;71914;47.382;8.168;2023-11-21T09:52:18;96549.19;;;6.88;89.11
82305;BME280;71914;47.382;8.168;2023-11-21T09:54:48;96536.84;;;7.01;90.70
82305;BME280;71914;47.382;8.168;2023-11-21T09:57:15;96554.28;;;7.12;90.68
82305;BME280;71914;47.382;8.168;2023-11-21T09:59:41;96542.41;;;7.19;90.76
82305;BME280;71914;47.382;8.168;2023-11-21T10:02:08;96536.38;;;7.19;90.38
82305;BME280;71914;47.382;8.168;2023-11-21T10:04:39;96537.53;;;7.26;90.23
82305;BME280;71914;47.382;8.168;2023-11-21T10:07:05;96533.53;;;7.22;88.86
82305;BME280;71914;47.382;8.168;2023-11-21T10:09:34;96534.94;;;7.26;89.95
82305;BME280;71914;47.382;8.168;2023-11-21T10:12:01;96532.09;;;7.29;90.38
82305;BME280;71914;47.382;8.168;2023-11-21T10:14:29;96531.84;;;7.32;90.04
82305;BME280;71914;47.382;8.168;2023-11-21T10:16:56;96531.84;;;7.32;90.21
82305;BME280;71914;47.382;8.168;2023-11-21T10:19:23;96528.44;;;7.31;89.73
82305;BME280;71914;47.382;8.168;2023-11-21T10:21:50;96530.91;;;7.33;89.43
82305;BME280;71914;47.382;8.168;2023-11-21T10:24:16;96529.13;;;7.34;89.97
82305;BME280;71914;47.382;8.168;2023-11-21T10:26:43;96532.19;;;7.39;90.30
82305;BME280;71914;47.382;8.168;2023-11-21T10:29:14;96533.59;;;7.43;90.26
82305;BME280;71914;47.382;8.168;2023-11-21T10:31:42;96527.56;;;7.42;89.18
82305;BME280;71914;47.382;8.168;2023-11-21T10:34:14;96527.50;;;7.54;88.91
82305;BME280;71914;47.382;8.168;2023-11-21T10:36:41;96532.97;;;7.51;87.84
82305;BME280;71914;47.382;8.168;2023-11-21T10:39:08;96526.72;;;7.42;88.26
82305;BME280;71914;47.382;8.168;2023-11-21T10:41:35;96526.97;;;7.39;90.78
82305;BME280;71914;47.382;8.168;2023-11-21T10:44:00;96528.38;;;7.43;90.62
82305;BME280;71914;47.382;8.168;2023-11-21T10:46:27;96527.50;;;7.54;90.73
82305;BME280;71914;47.382;8.168;2023-11-21T10:48:52;96529.44;;;7.52;90.04
82305;BME280;71914;47.382;8.168;2023-11-21T10:51:20;96524.69;;;7.57;89.28
82305;BME280;71914;47.382;8.168;2023-11-21T10:53:46;96525.88;;;7.53;89.64
82305;BME280;71914;47.382;8.168;2023-11-21T10:56:14;96527.97;;;7.59;90.30
82305;BME280;71914;47.382;8.168;2023-11-21T10:58:45;96521.34;;;7.55;89.27
82305;BME280;71914;47.382;8.168;2023-11-21T11:01:11;96523.81;;;7.56;89.69
82305;BME280;71914;47.382;8.168;2023-11-21T11:03:39;96527.75;;;7.62;89.49
82305;BME280;71914;47.382;8.168;2023-11-21T11:06:07;96529.16;;;7.66;89.69
82305;BME280;71914;47.382;8.168;2023-11-21T11:08:37;96521.16;;;7.79;87.37
82305;BME280;71914;47.382;8.168;2023-11-21T11:11:04;96533.34;;;7.78;86.95
82305;BME280;71914;47.382;8.168;2023-11-21T11:13:31;96532.03;;;7.52;87.10
82305;BME280;71914;47.382;8.168;2023-11-21T11:15:59;96524.50;;;7.37;88.51
82305;BME280;71914;47.382;8.168;2023-11-21T11:18:26;96522.97;;;7.35;90.14
82305;BME280;71914;47.382;8.168;2023-11-21T11:20:52;96525.66;;;7.44;91.14
82305;BME280;71914;47.382;8.168;2023-11-21T11:23:32;96524.00;;;7.43;89.40
82305;BME280;71914;47.382;8.168;2023-11-21T11:26:12;96520.22;;;7.47;88.84
82305;BME280;71914;47.382;8.168;2023-11-21T11:28:47;96519.63;;;7.44;87.94
82305;BME280;71914;47.382;8.168;2023-11-21T11:31:27;96514.53;;;7.42;88.79
82305;BME280;71914;47.382;8.168;2023-11-21T11:33:59;96513.19;;;7.48;89.53
82305;BME280;71914;47.382;8.168;2023-11-21T11:36:31;96513.69;;;7.42;88.31
82305;BME280;71914;47.382;8.168;2023-11-21T11:38:59;96513.94;;;7.39;88.09
82305;BME280;71914;47.382;8.168;2023-11-21T11:41:28;96522.22;;;7.44;88.08
82305;BME280;71914;47.382;8.168;2023-11-21T11:43:56;96520.75;;;7.51;89.21
82305;BME280;71914;47.382;8.168;2023-11-21T11:46:26;96523.72;;;7.58;88.56
82305;BME280;71914;47.382;8.168;2023-11-21T11:49:05;96519.53;;;7.67;89.59
82305;BME280;71914;47.382;8.168;2023-11-21T11:51:31;96528.31;;;7.65;88.31
82305;BME280;71914;47.382;8.168;2023-11-21T11:53:56;96533.03;;;7.72;88.68
82305;BME280;71914;47.382;8.168;2023-11-21T11:56:24;96532.22;;;7.71;88.62
82305;BME280;71914;47.382;8.168;2023-11-21T11:58:53;96530.97;;;7.87;87.25
82305;BME280;71914;47.382;8.168;2023-11-21T12:01:22;96523.78;;;8.00;86.13
82305;BME280;71914;47.382;8.168;2023-11-21T12:04:22;96514.66;;;7.73;86.55
82305;BME280;71914;47.382;8.168;2023-11-21T12:06:51;96530.09;;;7.65;87.98
82305;BME280;71914;47.382;8.168;2023-11-21T12:09:17;96525.47;;;7.69;89.98
82305;BME280;71914;47.382;8.168;2023-11-21T12:11:43;96527.81;;;7.72;89.78
82305;BME280;71914;47.382;8.168;2023-11-21T12:14:09;96528.66;;;7.72;89.29
82305;BME280;71914;47.382;8.168;2023-11-21T12:16:36;96529.06;;;7.89;90.08
82305;BME280;71914;47.382;8.168;2023-11-21T12:19:02;96526.53;;;7.98;89.14
82305;BME280;71914;47.382;8.168;2023-11-21T12:21:28;96521.88;;;8.02;88.03
82305;BME280;71914;47.382;8.168;2023-11-21T12:23:55;96530.88;;;8.09;88.10
82305;BME280;71914;47.382;8.168;2023-11-21T12:26:23;96523.03;;;8.09;87.93
82305;BME280;71914;47.382;8.168;2023-11-21T12:28:52;96524.44;;;8.13;87.05
82305;BME280;71914;47.382;8.168;2023-11-21T12:31:17;96528.44;;;8.18;86.21
82305;BME280;71914;47.382;8.168;2023-11-21T12:33:44;96533.66;;;8.18;87.51
82305;BME280;71914;47.382;8.168;2023-11-21T12:36:11;96532.53;;;8.10;85.99
82305;BME280;71914;47.382;8.168;2023-11-21T12:38:36;96535.91;;;8.01;85.47
82305;BME280;71914;47.382;8.168;2023-11-21T12:41:02;96537.34;;;7.94;86.94
82305;BME280;71914;47.382;8.168;2023-11-21T12:43:28;96540.06;;;7.92;87.73
82305;BME280;71914;47.382;8.168;2023-11-21T12:46:04;96547.72;;;7.84;86.75
82305;BME280;71914;47.382;8.168;2023-11-21T12:48:31;96542.34;;;7.86;88.55
82305;BME280;71914;47.382;8.168;2023-11-21T12:50:58;96533.69;;;7.85;87.79
82305;BME280;71914;47.382;8.168;2023-11-21T12:53:26;96530.63;;;7.80;85.93
82305;BME280;71914;47.382;8.168;2023-11-21T12:55:51;96542.19;;;7.66;87.16
82305;BME280;71914;47.382;8.168;2023-11-21T12:58:21;96537.09;;;7.64;88.60
82305;BME280;71914;47.382;8.168;2023-11-21T13:00:50;96540.72;;;7.73;89.37
82305;BME280;71914;47.382;8.168;2023-11-21T13:03:17;96544.88;;;7.76;89.13
82305;BME280;71914;47.382;8.168;2023-11-21T13:05:45;96541.88;;;7.92;89.69
82305;BME280;71914;47.382;8.168;2023-11-21T13:08:13;96535.81;;;7.91;85.93